sensor_id;sensor_type;location;lat;lon;timestamp;P1;durP1;ratioP1;P2;durP2;ratioP2
5157;SDS011;2598;52.364;9.772;2023-10-19T00:01:57;20.07;;;11.90;;
5157;SDS011;2598;52.364;9.772;2023-10-19T00:04:24;17.17;;;11.23;;
5157;SDS011;2598;52.364;9.772;2023-10-19T00:06:50;17.40;;;10.40;;
5157;SDS011;2598;52.364;9.772;2023-10-19T00:09:18;16.77;;;10.60;;
5157;SDS011;2598;52.364;9.772;2023-10-19T00:11:45;18.00;;;11.83;;
5157;SDS011;2598;52.364;9.772;2023-10-19T00:14:12;18.23;;;10.70;;
5157;SDS011;2598;52.364;9.772;2023-10-19T00:16:42;18.70;;;10.57;;
5157;SDS011;2598;52.364;9.772;2023-10-19T00:19:31;19.67;;;10.50;;
5157;SDS011;2598;52.364;9.772;2023-10-19T00:22:02;18.80;;;12.17;;
5157;SDS011;2598;52.364;9.772;2023-10-19T00:24:33;23.57;;;11.53;;
5157;SDS011;2598;52.364;9.772;2023-10-19T00:26:59;18.87;;;11.67;;
5157;SDS011;2598;52.364;9.772;2023-10-19T00:29:31;22.30;;;12.57;;
5157;SDS011;2598;52.364;9.772;2023-10-19T00:32:01;23.70;;;11.93;;
5157;SDS011;2598;52.364;9.772;2023-10-19T00:34:31;22.43;;;13.70;;
5157;SDS011;2598;52.364;9.772;2023-10-19T00:36:58;21.63;;;13.43;;
5157;SDS011;2598;52.364;9.772;2023-10-19T00:39:32;21.63;;;13.23;;
5157;SDS011;2598;52.364;9.772;2023-10-19T00:42:07;22.73;;;14.10;;
5157;SDS011;2598;52.364;9.772;2023-10-19T00:44:33;22.27;;;13.07;;
5157;SDS011;2598;52.364;9.772;2023-10-19T00:47:07;22.13;;;13.63;;
5157;SDS011;2598;52.364;9.772;2023-10-19T00:49:38;22.83;;;13.63;;
5157;SDS011;2598;52.364;9.772;2023-10-19T00:52:04;19.33;;;12.83;;
5157;SDS011;2598;52.364;9.772;2023-10-19T00:54:38;26.30;;;13.47;;
5157;SDS011;2598;52.364;9.772;2023-10-19T00:57:07;20.37;;;12.60;;
5157;SDS011;2598;52.364;9.772;2023-10-19T00:59:35;22.70;;;13.60;;
5157;SDS011;2598;52.364;9.772;2023-10-19T01:02:12;25.00;;;14.07;;
5157;SDS011;2598;52.364;9.772;2023-10-19T01:04:43;24.37;;;14.30;;
5157;SDS011;2598;52.364;9.772;2023-10-19T01:07:10;21.10;;;13.17;;
5157;SDS011;2598;52.364;9.772;2023-10-19T01:09:48;25.37;;;15.27;;
5157;SDS011;2598;52.364;9.772;2023-10-19T01:12:18;24.13;;;14.43;;
5157;SDS011;2598;52.364;9.772;2023-10-19T01:17:39;25.67;;;14.37;;
5157;SDS011;2598;52.364;9.772;2023-10-19T01:20:13;22.30;;;13.27;;
5157;SDS011;2598;52.364;9.772;2023-10-19T01:22:50;21.53;;;13.83;;
5157;SDS011;2598;52.364;9.772;2023-10-19T01:25:31;23.53;;;13.07;;
5157;SDS011;2598;52.364;9.772;2023-10-19T01:28:02;25.20;;;13.27;;
5157;SDS011;2598;52.364;9.772;2023-10-19T01:30:32;26.17;;;14.27;;
5157;SDS011;2598;52.364;9.772;2023-10-19T01:32:58;32.93;;;15.43;;
5157;SDS011;2598;52.364;9.772;2023-10-19T01:35:25;24.30;;;14.80;;
5157;SDS011;2598;52.364;9.772;2023-10-19T01:37:52;22.90;;;13.70;;
5157;SDS011;2598;52.364;9.772;2023-10-19T01:40:18;25.17;;;14.37;;
5157;SDS011;2598;52.364;9.772;2023-10-19T01:42:46;26.40;;;15.13;;
5157;SDS011;2598;52.364;9.772;2023-10-19T01:45:12;23.50;;;14.40;;
5157;SDS011;2598;52.364;9.772;2023-10-19T01:47:39;21.57;;;14.07;;
5157;SDS011;2598;52.364;9.772;2023-10-19T01:50:06;24.33;;;14.30;;
5157;SDS011;2598;52.364;9.772;2023-10-19T01:52:38;23.83;;;14.57;;
5157;SDS011;2598;52.364;9.772;2023-10-19T01:55:04;26.77;;;15.77;;
5157;SDS011;2598;52.364;9.772;2023-10-19T01:57:33;23.33;;;14.67;;
5157;SDS011;2598;52.364;9.772;2023-10-19T02:00:00;23.60;;;14.20;;
5157;SDS011;2598;52.364;9.772;2023-10-19T02:02:36;26.77;;;15.90;;
5157;SDS011;2598;52.364;9.772;2023-10-19T02:05:02;21.47;;;13.47;;
5157;SDS011;2598;52.364;9.772;2023-10-19T02:07:33;28.27;;;14.20;;
5157;SDS011;2598;52.364;9.772;2023-10-19T02:10:00;26.23;;;13.73;;
5157;SDS011;2598;52.364;9.772;2023-10-19T02:12:26;24.30;;;15.07;;
5157;SDS011;2598;52.364;9.772;2023-10-19T02:14:52;23.97;;;14.23;;
5157;SDS011;2598;52.364;9.772;2023-10-19T02:17:18;27.20;;;14.40;;
5157;SDS011;2598;52.364;9.772;2023-10-19T02:19:44;21.17;;;13.33;;
5157;SDS011;2598;52.364;9.772;2023-10-19T02:22:10;21.20;;;13.77;;
5157;SDS011;2598;52.364;9.772;2023-10-19T02:24:37;23.53;;;13.50;;
5157;SDS011;2598;52.364;9.772;2023-10-19T02:27:04;21.07;;;14.10;;
5157;SDS011;2598;52.364;9.772;2023-10-19T02:29:30;25.00;;;14.60;;
5157;SDS011;2598;52.364;9.772;2023-10-19T02:31:56;25.43;;;14.20;;
5157;SDS011;2598;52.364;9.772;2023-10-19T02:34:28;24.20;;;14.70;;
5157;SDS011;2598;52.364;9.772;2023-10-19T02:36:55;24.20;;;14.23;;
5157;SDS011;2598;52.364;9.772;2023-10-19T02:39:21;23.50;;;14.73;;
5157;SDS011;2598;52.364;9.772;2023-10-19T02:41:53;22.20;;;14.17;;
5157;SDS011;2598;52.364;9.772;2023-10-19T02:44:20;24.47;;;12.80;;
5157;SDS011;2598;52.364;9.772;2023-10-19T02:46:51;27.17;;;14.83;;
5157;SDS011;2598;52.364;9.772;2023-10-19T02:49:19;23.03;;;13.20;;
5157;SDS011;2598;52.364;9.772;2023-10-19T02:51:46;22.87;;;15.30;;
5157;SDS011;2598;52.364;9.772;2023-10-19T02:54:16;20.77;;;13.57;;
5157;SDS011;2598;52.364;9.772;2023-10-19T02:56:44;24.20;;;13.93;;
5157;SDS011;2598;52.364;9.772;2023-10-19T02:59:14;24.50;;;14.97;;
5157;SDS011;2598;52.364;9.772;2023-10-19T03:01:53;25.50;;;14.30;;
5157;SDS011;2598;52.364;9.772;2023-10-19T03:04:26;22.67;;;13.83;;
5157;SDS011;2598;52.364;9.772;2023-10-19T03:06:55;26.57;;;13.87;;
5157;SDS011;2598;52.364;9.772;2023-10-19T03:09:21;28.73;;;14.37;;
5157;SDS011;2598;52.364;9.772;2023-10-19T03:11:53;25.67;;;14.63;;
5157;SDS011;2598;52.364;9.772;2023-10-19T03:14:21;28.40;;;14.30;;
5157;SDS011;2598;52.364;9.772;2023-10-19T03:16:50;25.30;;;14.27;;
5157;SDS011;2598;52.364;9.772;2023-10-19T03:19:16;24.60;;;14.03;;
5157;SDS011;2598;52.364;9.772;2023-10-19T03:21:42;24.33;;;14.73;;
5157;SDS011;2598;52.364;9.772;2023-10-19T03:24:11;25.63;;;15.40;;
5157;SDS011;2598;52.364;9.772;2023-10-19T03:26:39;22.50;;;13.90;;
5157;SDS011;2598;52.364;9.772;2023-10-19T03:29:13;21.43;;;14.07;;
5157;SDS011;2598;52.364;9.772;2023-10-19T03:31:40;22.33;;;13.83;;
5157;SDS011;2598;52.364;9.772;2023-10-19T03:34:10;24.30;;;15.10;;
5157;SDS011;2598;52.364;9.772;2023-10-19T03:36:37;21.33;;;14.07;;
5157;SDS011;2598;52.364;9.772;2023-10-19T03:39:04;22.60;;;13.80;;
5157;SDS011;2598;52.364;9.772;2023-10-19T03:41:40;27.53;;;14.67;;
5157;SDS011;2598;52.364;9.772;2023-10-19T03:44:12;22.40;;;14.43;;
5157;SDS011;2598;52.364;9.772;2023-10-19T03:46:47;25.80;;;15.10;;
5157;SDS011;2598;52.364;9.772;2023-10-19T03:49:24;23.73;;;14.27;;
5157;SDS011;2598;52.364;9.772;2023-10-19T03:51:58;22.90;;;15.10;;
5157;SDS011;2598;52.364;9.772;2023-10-19T03:54:33;23.50;;;14.17;;
5157;SDS011;2598;52.364;9.772;2023-10-19T03:57:00;25.60;;;15.47;;
5157;SDS011;2598;52.364;9.772;2023-10-19T03:59:31;24.03;;;15.70;;
5157;SDS011;2598;52.364;9.772;2023-10-19T04:02:00;25.57;;;15.47;;
5157;SDS011;2598;52.364;9.772;2023-10-19T04:04:32;22.20;;;14.53;;
5157;SDS011;2598;52.364;9.772;2023-10-19T04:06:58;20.93;;;14.13;;
5157;SDS011;2598;52.364;9.772;2023-10-19T04:09:24;26.50;;;14.60;;
5157;SDS011;2598;52.364;9.772;2023-10-19T04:11:57;22.50;;;14.20;;
5157;SDS011;2598;52.364;9.772;2023-10-19T04:14:23;23.10;;;13.63;;
5157;SDS011;2598;52.364;9.772;2023-10-19T04:16:49;24.00;;;15.10;;
5157;SDS011;2598;52.364;9.772;2023-10-19T04:19:15;21.33;;;13.13;;
5157;SDS011;2598;52.364;9.772;2023-10-19T04:21:42;21.43;;;13.80;;
5157;SDS011;2598;52.364;9.772;2023-10-19T04:24:11;21.50;;;13.50;;
5157;SDS011;2598;52.364;9.772;2023-10-19T04:26:37;20.10;;;13.10;;
5157;SDS011;2598;52.364;9.772;2023-10-19T04:29:06;25.60;;;14.33;;
5157;SDS011;2598;52.364;9.772;2023-10-19T04:31:36;21.03;;;13.87;;
5157;SDS011;2598;52.364;9.772;2023-10-19T04:34:06;24.10;;;14.77;;
5157;SDS011;2598;52.364;9.772;2023-10-19T04:36:35;23.53;;;13.87;;
5157;SDS011;2598;52.364;9.772;2023-10-19T04:39:01;22.57;;;12.67;;
5157;SDS011;2598;52.364;9.772;2023-10-19T04:41:27;23.60;;;14.10;;
5157;SDS011;2598;52.364;9.772;2023-10-19T04:43:53;21.90;;;13.47;;
5157;SDS011;2598;52.364;9.772;2023-10-19T04:46:22;19.23;;;12.97;;
5157;SDS011;2598;52.364;9.772;2023-10-19T04:48:48;20.53;;;12.17;;
5157;SDS011;2598;52.364;9.772;2023-10-19T04:51:14;22.00;;;12.10;;
5157;SDS011;2598;52.364;9.772;2023-10-19T04:53:42;20.27;;;12.07;;
5157;SDS011;2598;52.364;9.772;2023-10-19T04:56:08;17.80;;;11.00;;
5157;SDS011;2598;52.364;9.772;2023-10-19T04:58:34;19.27;;;11.60;;
5157;SDS011;2598;52.364;9.772;2023-10-19T05:01:01;22.23;;;12.17;;
5157;SDS011;2598;52.364;9.772;2023-10-19T05:03:28;18.10;;;11.40;;
5157;SDS011;2598;52.364;9.772;2023-10-19T05:05:54;18.87;;;11.97;;
5157;SDS011;2598;52.364;9.772;2023-10-19T05:08:21;20.70;;;11.90;;
5157;SDS011;2598;52.364;9.772;2023-10-19T05:10:49;16.60;;;10.43;;
5157;SDS011;2598;52.364;9.772;2023-10-19T05:13:15;23.57;;;11.90;;
5157;SDS011;2598;52.364;9.772;2023-10-19T05:15:41;17.43;;;10.63;;
5157;SDS011;2598;52.364;9.772;2023-10-19T05:18:08;16.77;;;11.07;;
5157;SDS011;2598;52.364;9.772;2023-10-19T05:20:34;18.70;;;11.80;;
5157;SDS011;2598;52.364;9.772;2023-10-19T05:23:04;17.93;;;11.03;;
5157;SDS011;2598;52.364;9.772;2023-10-19T05:25:30;19.20;;;9.90;;
5157;SDS011;2598;52.364;9.772;2023-10-19T05:27:56;18.53;;;10.90;;
5157;SDS011;2598;52.364;9.772;2023-10-19T05:30:23;16.50;;;9.80;;
5157;SDS011;2598;52.364;9.772;2023-10-19T05:32:50;15.30;;;9.70;;
5157;SDS011;2598;52.364;9.772;2023-10-19T05:35:16;14.60;;;9.27;;
5157;SDS011;2598;52.364;9.772;2023-10-19T05:37:48;16.20;;;10.20;;
5157;SDS011;2598;52.364;9.772;2023-10-19T05:40:14;16.60;;;9.60;;
5157;SDS011;2598;52.364;9.772;2023-10-19T05:42:41;15.03;;;9.30;;
5157;SDS011;2598;52.364;9.772;2023-10-19T05:45:07;14.60;;;8.73;;
5157;SDS011;2598;52.364;9.772;2023-10-19T05:47:33;13.53;;;8.30;;
5157;SDS011;2598;52.364;9.772;2023-10-19T05:49:59;13.50;;;8.27;;
5157;SDS011;2598;52.364;9.772;2023-10-19T05:52:25;13.07;;;8.23;;
5157;SDS011;2598;52.364;9.772;2023-10-19T05:54:51;13.10;;;7.90;;
5157;SDS011;2598;52.364;9.772;2023-10-19T05:57:18;14.60;;;8.47;;
5157;SDS011;2598;52.364;9.772;2023-10-19T05:59:45;13.90;;;8.37;;
5157;SDS011;2598;52.364;9.772;2023-10-19T06:02:11;12.37;;;7.70;;
5157;SDS011;2598;52.364;9.772;2023-10-19T06:04:37;14.00;;;8.60;;
5157;SDS011;2598;52.364;9.772;2023-10-19T06:07:03;11.97;;;8.17;;
5157;SDS011;2598;52.364;9.772;2023-10-19T06:09:29;14.10;;;8.27;;
5157;SDS011;2598;52.364;9.772;2023-10-19T06:11:55;13.67;;;8.27;;
5157;SDS011;2598;52.364;9.772;2023-10-19T06:14:21;11.77;;;7.30;;
5157;SDS011;2598;52.364;9.772;2023-10-19T06:16:47;13.00;;;8.83;;
5157;SDS011;2598;52.364;9.772;2023-10-19T06:19:13;12.57;;;7.47;;
5157;SDS011;2598;52.364;9.772;2023-10-19T06:21:41;11.30;;;7.63;;
5157;SDS011;2598;52.364;9.772;2023-10-19T06:24:07;12.70;;;7.87;;
5157;SDS011;2598;52.364;9.772;2023-10-19T06:26:33;11.00;;;6.60;;
5157;SDS011;2598;52.364;9.772;2023-10-19T06:28:59;9.60;;;6.03;;
5157;SDS011;2598;52.364;9.772;2023-10-19T06:31:26;13.47;;;6.70;;
5157;SDS011;2598;52.364;9.772;2023-10-19T06:33:53;11.97;;;7.13;;
5157;SDS011;2598;52.364;9.772;2023-10-19T06:36:19;12.73;;;7.10;;
5157;SDS011;2598;52.364;9.772;2023-10-19T06:38:45;10.93;;;6.97;;
5157;SDS011;2598;52.364;9.772;2023-10-19T06:41:14;12.10;;;7.67;;
5157;SDS011;2598;52.364;9.772;2023-10-19T06:43:41;13.13;;;6.80;;
5157;SDS011;2598;52.364;9.772;2023-10-19T06:46:08;11.60;;;7.27;;
5157;SDS011;2598;52.364;9.772;2023-10-19T06:48:36;13.60;;;7.50;;
5157;SDS011;2598;52.364;9.772;2023-10-19T06:51:02;9.70;;;6.27;;
5157;SDS011;2598;52.364;9.772;2023-10-19T06:53:28;12.50;;;7.60;;
5157;SDS011;2598;52.364;9.772;2023-10-19T06:55:54;11.07;;;7.10;;
5157;SDS011;2598;52.364;9.772;2023-10-19T06:58:20;13.30;;;6.50;;
5157;SDS011;2598;52.364;9.772;2023-10-19T07:00:46;10.90;;;6.37;;
5157;SDS011;2598;52.364;9.772;2023-10-19T07:03:21;11.90;;;6.53;;
5157;SDS011;2598;52.364;9.772;2023-10-19T07:05:53;10.80;;;6.77;;
5157;SDS011;2598;52.364;9.772;2023-10-19T07:08:21;10.30;;;5.60;;
5157;SDS011;2598;52.364;9.772;2023-10-19T07:10:47;8.43;;;5.40;;
5157;SDS011;2598;52.364;9.772;2023-10-19T07:13:14;9.43;;;6.03;;
5157;SDS011;2598;52.364;9.772;2023-10-19T07:15:41;10.50;;;6.27;;
5157;SDS011;2598;52.364;9.772;2023-10-19T07:18:07;10.73;;;6.30;;
5157;SDS011;2598;52.364;9.772;2023-10-19T07:20:34;10.70;;;6.00;;
5157;SDS011;2598;52.364;9.772;2023-10-19T07:23:03;9.27;;;6.37;;
5157;SDS011;2598;52.364;9.772;2023-10-19T07:25:43;7.07;;;4.90;;
5157;SDS011;2598;52.364;9.772;2023-10-19T07:28:10;8.30;;;5.27;;
5157;SDS011;2598;52.364;9.772;2023-10-19T07:30:37;8.57;;;5.70;;
5157;SDS011;2598;52.364;9.772;2023-10-19T07:33:03;8.30;;;5.03;;
5157;SDS011;2598;52.364;9.772;2023-10-19T07:35:33;9.03;;;5.10;;
5157;SDS011;2598;52.364;9.772;2023-10-19T07:37:59;9.30;;;5.20;;
5157;SDS011;2598;52.364;9.772;2023-10-19T07:40:26;8.60;;;5.47;;
5157;SDS011;2598;52.364;9.772;2023-10-19T07:42:52;8.80;;;5.40;;
5157;SDS011;2598;52.364;9.772;2023-10-19T07:45:20;7.93;;;4.80;;
5157;SDS011;2598;52.364;9.772;2023-10-19T07:47:46;7.77;;;4.80;;
5157;SDS011;2598;52.364;9.772;2023-10-19T07:50:12;9.37;;;5.67;;
5157;SDS011;2598;52.364;9.772;2023-10-19T07:52:44;7.90;;;4.80;;
5157;SDS011;2598;52.364;9.772;2023-10-19T07:55:12;7.57;;;4.43;;
5157;SDS011;2598;52.364;9.772;2023-10-19T07:57:39;7.73;;;4.70;;
5157;SDS011;2598;52.364;9.772;2023-10-19T08:00:08;7.30;;;4.63;;
5157;SDS011;2598;52.364;9.772;2023-10-19T08:02:35;8.03;;;5.00;;
5157;SDS011;2598;52.364;9.772;2023-10-19T08:05:01;8.90;;;4.80;;
5157;SDS011;2598;52.364;9.772;2023-10-19T08:07:28;7.50;;;4.43;;
5157;SDS011;2598;52.364;9.772;2023-10-19T08:09:54;7.90;;;4.53;;
5157;SDS011;2598;52.364;9.772;2023-10-19T08:12:23;7.67;;;4.47;;
5157;SDS011;2598;52.364;9.772;2023-10-19T08:14:49;7.17;;;4.10;;
5157;SDS011;2598;52.364;9.772;2023-10-19T08:17:15;6.37;;;4.07;;
5157;SDS011;2598;52.364;9.772;2023-10-19T08:19:41;7.80;;;4.17;;
5157;SDS011;2598;52.364;9.772;2023-10-19T08:22:07;5.73;;;3.37;;
5157;SDS011;2598;52.364;9.772;2023-10-19T08:24:34;7.27;;;4.03;;
5157;SDS011;2598;52.364;9.772;2023-10-19T08:27:00;7.23;;;3.70;;
5157;SDS011;2598;52.364;9.772;2023-10-19T08:29:30;7.13;;;3.70;;
5157;SDS011;2598;52.364;9.772;2023-10-19T08:31:56;11.30;;;3.90;;
5157;SDS011;2598;52.364;9.772;2023-10-19T08:34:22;6.63;;;3.63;;
5157;SDS011;2598;52.364;9.772;2023-10-19T08:36:50;6.03;;;3.40;;
5157;SDS011;2598;52.364;9.772;2023-10-19T08:39:17;6.10;;;3.47;;
5157;SDS011;2598;52.364;9.772;2023-10-19T08:41:43;7.60;;;4.17;;
5157;SDS011;2598;52.364;9.772;2023-10-19T08:44:09;5.77;;;3.37;;
5157;SDS011;2598;52.364;9.772;2023-10-19T08:46:40;8.20;;;4.63;;
5157;SDS011;2598;52.364;9.772;2023-10-19T08:49:13;6.80;;;3.90;;
5157;SDS011;2598;52.364;9.772;2023-10-19T08:51:43;9.13;;;4.10;;
5157;SDS011;2598;52.364;9.772;2023-10-19T08:54:10;7.37;;;4.07;;
5157;SDS011;2598;52.364;9.772;2023-10-19T08:56:37;9.93;;;4.50;;
5157;SDS011;2598;52.364;9.772;2023-10-19T08:59:04;7.00;;;4.20;;
5157;SDS011;2598;52.364;9.772;2023-10-19T09:01:31;8.17;;;4.77;;
5157;SDS011;2598;52.364;9.772;2023-10-19T09:04:00;9.20;;;4.23;;
5157;SDS011;2598;52.364;9.772;2023-10-19T09:06:26;7.30;;;4.77;;
5157;SDS011;2598;52.364;9.772;2023-10-19T09:08:54;7.17;;;4.37;;
5157;SDS011;2598;52.364;9.772;2023-10-19T09:11:20;8.30;;;4.57;;
5157;SDS011;2598;52.364;9.772;2023-10-19T09:13:47;7.70;;;5.00;;
5157;SDS011;2598;52.364;9.772;2023-10-19T09:16:16;8.37;;;4.93;;
5157;SDS011;2598;52.364;9.772;2023-10-19T09:18:43;8.60;;;5.07;;
5157;SDS011;2598;52.364;9.772;2023-10-19T09:21:10;9.77;;;4.73;;
5157;SDS011;2598;52.364;9.772;2023-10-19T09:23:49;8.77;;;5.10;;
5157;SDS011;2598;52.364;9.772;2023-10-19T09:26:15;9.77;;;4.83;;
5157;SDS011;2598;52.364;9.772;2023-10-19T09:28:42;7.37;;;4.60;;
5157;SDS011;2598;52.364;9.772;2023-10-19T09:31:12;7.73;;;4.70;;
5157;SDS011;2598;52.364;9.772;2023-10-19T09:33:40;9.37;;;5.27;;
5157;SDS011;2598;52.364;9.772;2023-10-19T09:36:06;7.83;;;4.57;;
5157;SDS011;2598;52.364;9.772;2023-10-19T09:38:38;8.53;;;5.33;;
5157;SDS011;2598;52.364;9.772;2023-10-19T09:41:06;7.63;;;4.80;;
5157;SDS011;2598;52.364;9.772;2023-10-19T09:43:39;8.33;;;5.70;;
5157;SDS011;2598;52.364;9.772;2023-10-19T09:46:08;8.83;;;5.43;;
5157;SDS011;2598;52.364;9.772;2023-10-19T09:48:41;10.23;;;5.70;;
5157;SDS011;2598;52.364;9.772;2023-10-19T09:51:07;10.60;;;5.30;;
5157;SDS011;2598;52.364;9.772;2023-10-19T09:53:34;9.60;;;5.43;;
5157;SDS011;2598;52.364;9.772;2023-10-19T09:56:00;9.70;;;6.10;;
5157;SDS011;2598;52.364;9.772;2023-10-19T09:58:31;9.83;;;5.10;;
5157;SDS011;2598;52.364;9.772;2023-10-19T10:01:00;7.43;;;5.13;;
5157;SDS011;2598;52.364;9.772;2023-10-19T10:06:16;8.63;;;5.57;;
5157;SDS011;2598;52.364;9.772;2023-10-19T10:08:45;11.13;;;5.40;;
5157;SDS011;2598;52.364;9.772;2023-10-19T10:11:14;9.00;;;5.10;;
5157;SDS011;2598;52.364;9.772;2023-10-19T10:13:41;10.23;;;5.60;;
5157;SDS011;2598;52.364;9.772;2023-10-19T10:16:07;8.30;;;5.40;;
5157;SDS011;2598;52.364;9.772;2023-10-19T10:18:34;8.40;;;4.90;;
5157;SDS011;2598;52.364;9.772;2023-10-19T10:23:45;8.10;;;4.70;;
5157;SDS011;2598;52.364;9.772;2023-10-19T10:26:15;9.90;;;5.27;;
5157;SDS011;2598;52.364;9.772;2023-10-19T10:28:45;7.10;;;4.50;;
5157;SDS011;2598;52.364;9.772;2023-10-19T10:31:19;8.03;;;4.80;;
5157;SDS011;2598;52.364;9.772;2023-10-19T10:33:52;7.93;;;4.77;;
5157;SDS011;2598;52.364;9.772;2023-10-19T10:36:21;9.27;;;5.50;;
5157;SDS011;2598;52.364;9.772;2023-10-19T10:38:48;10.23;;;5.50;;
5157;SDS011;2598;52.364;9.772;2023-10-19T10:41:24;8.27;;;5.20;;
5157;SDS011;2598;52.364;9.772;2023-10-19T10:43:54;8.10;;;4.97;;
5157;SDS011;2598;52.364;9.772;2023-10-19T10:46:21;9.57;;;5.23;;
5157;SDS011;2598;52.364;9.772;2023-10-19T10:48:47;8.63;;;5.57;;
5157;SDS011;2598;52.364;9.772;2023-10-19T10:51:20;11.83;;;6.00;;
5157;SDS011;2598;52.364;9.772;2023-10-19T10:53:54;11.57;;;5.23;;
5157;SDS011;2598;52.364;9.772;2023-10-19T10:56:21;8.60;;;5.30;;
5157;SDS011;2598;52.364;9.772;2023-10-19T10:58:47;11.70;;;6.10;;
5157;SDS011;2598;52.364;9.772;2023-10-19T11:01:13;9.43;;;5.63;;
5157;SDS011;2598;52.364;9.772;2023-10-19T11:03:40;11.23;;;6.10;;
5157;SDS011;2598;52.364;9.772;2023-10-19T11:06:07;8.50;;;5.70;;
5157;SDS011;2598;52.364;9.772;2023-10-19T11:08:34;8.50;;;5.37;;
5157;SDS011;2598;52.364;9.772;2023-10-19T11:13:30;8.37;;;5.37;;
5157;SDS011;2598;52.364;9.772;2023-10-19T11:15:58;9.50;;;5.73;;
5157;SDS011;2598;52.364;9.772;2023-10-19T11:18:33;10.57;;;6.33;;
5157;SDS011;2598;52.364;9.772;2023-10-19T11:21:01;8.60;;;5.47;;
5157;SDS011;2598;52.364;9.772;2023-10-19T11:23:39;7.50;;;5.03;;
5157;SDS011;2598;52.364;9.772;2023-10-19T11:26:06;9.50;;;5.67;;
5157;SDS011;2598;52.364;9.772;2023-10-19T11:28:33;9.13;;;5.43;;
5157;SDS011;2598;52.364;9.772;2023-10-19T11:31:10;9.00;;;5.20;;
5157;SDS011;2598;52.364;9.772;2023-10-19T11:33:36;8.20;;;4.63;;
5157;SDS011;2598;52.364;9.772;2023-10-19T11:36:03;10.57;;;5.03;;
5157;SDS011;2598;52.364;9.772;2023-10-19T11:38:29;8.13;;;5.20;;
5157;SDS011;2598;52.364;9.772;2023-10-19T11:40:55;8.10;;;4.80;;
5157;SDS011;2598;52.364;9.772;2023-10-19T11:43:22;10.53;;;5.30;;
5157;SDS011;2598;52.364;9.772;2023-10-19T11:45:48;9.77;;;5.00;;
5157;SDS011;2598;52.364;9.772;2023-10-19T11:48:14;10.03;;;5.80;;
5157;SDS011;2598;52.364;9.772;2023-10-19T11:50:40;9.60;;;5.73;;
5157;SDS011;2598;52.364;9.772;2023-10-19T11:53:06;9.03;;;5.47;;
5157;SDS011;2598;52.364;9.772;2023-10-19T11:55:34;10.70;;;5.40;;
5157;SDS011;2598;52.364;9.772;2023-10-19T11:58:00;9.23;;;5.67;;
5157;SDS011;2598;52.364;9.772;2023-10-19T12:00:26;9.30;;;5.70;;
5157;SDS011;2598;52.364;9.772;2023-10-19T12:02:59;10.77;;;5.60;;
5157;SDS011;2598;52.364;9.772;2023-10-19T12:05:25;9.97;;;5.90;;
5157;SDS011;2598;52.364;9.772;2023-10-19T12:07:51;10.47;;;6.03;;
5157;SDS011;2598;52.364;9.772;2023-10-19T12:10:17;8.83;;;5.67;;
5157;SDS011;2598;52.364;9.772;2023-10-19T12:12:45;9.80;;;6.00;;
5157;SDS011;2598;52.364;9.772;2023-10-19T12:15:11;9.30;;;5.53;;
5157;SDS011;2598;52.364;9.772;2023-10-19T12:17:38;9.57;;;5.50;;
5157;SDS011;2598;52.364;9.772;2023-10-19T12:20:04;11.40;;;6.40;;
5157;SDS011;2598;52.364;9.772;2023-10-19T12:22:31;11.90;;;5.20;;
5157;SDS011;2598;52.364;9.772;2023-10-19T12:25:02;10.90;;;6.30;;
5157;SDS011;2598;52.364;9.772;2023-10-19T12:27:29;11.47;;;6.80;;
5157;SDS011;2598;52.364;9.772;2023-10-19T12:29:55;10.50;;;6.17;;
5157;SDS011;2598;52.364;9.772;2023-10-19T12:32:21;10.70;;;6.33;;
5157;SDS011;2598;52.364;9.772;2023-10-19T12:34:47;8.90;;;5.43;;
5157;SDS011;2598;52.364;9.772;2023-10-19T12:37:18;12.50;;;6.47;;
5157;SDS011;2598;52.364;9.772;2023-10-19T12:39:44;11.60;;;6.33;;
5157;SDS011;2598;52.364;9.772;2023-10-19T12:42:12;11.00;;;6.70;;
5157;SDS011;2598;52.364;9.772;2023-10-19T12:44:39;14.40;;;6.53;;
5157;SDS011;2598;52.364;9.772;2023-10-19T12:47:06;9.60;;;5.93;;
5157;SDS011;2598;52.364;9.772;2023-10-19T12:49:35;10.97;;;6.20;;
5157;SDS011;2598;52.364;9.772;2023-10-19T12:52:01;10.50;;;6.57;;
5157;SDS011;2598;52.364;9.772;2023-10-19T12:54:35;10.20;;;6.57;;
5157;SDS011;2598;52.364;9.772;2023-10-19T12:57:01;11.67;;;7.23;;
5157;SDS011;2598;52.364;9.772;2023-10-19T12:59:35;11.10;;;7.23;;
5157;SDS011;2598;52.364;9.772;2023-10-19T13:02:02;12.80;;;7.07;;
5157;SDS011;2598;52.364;9.772;2023-10-19T13:04:29;13.93;;;7.40;;
5157;SDS011;2598;52.364;9.772;2023-10-19T13:06:56;12.20;;;7.50;;
5157;SDS011;2598;52.364;9.772;2023-10-19T13:09:24;13.83;;;7.50;;
5157;SDS011;2598;52.364;9.772;2023-10-19T13:11:56;15.17;;;7.67;;
5157;SDS011;2598;52.364;9.772;2023-10-19T13:14:22;13.53;;;8.53;;
5157;SDS011;2598;52.364;9.772;2023-10-19T13:16:48;14.00;;;8.60;;
5157;SDS011;2598;52.364;9.772;2023-10-19T13:19:16;15.70;;;9.40;;
5157;SDS011;2598;52.364;9.772;2023-10-19T13:21:45;17.07;;;9.53;;
5157;SDS011;2598;52.364;9.772;2023-10-19T13:24:11;15.87;;;9.30;;
5157;SDS011;2598;52.364;9.772;2023-10-19T13:26:38;16.47;;;9.30;;
5157;SDS011;2598;52.364;9.772;2023-10-19T13:29:07;13.93;;;8.50;;
5157;SDS011;2598;52.364;9.772;2023-10-19T13:31:33;15.63;;;9.43;;
5157;SDS011;2598;52.364;9.772;2023-10-19T13:33:59;12.67;;;9.00;;
5157;SDS011;2598;52.364;9.772;2023-10-19T13:36:28;16.77;;;10.53;;
5157;SDS011;2598;52.364;9.772;2023-10-19T13:38:54;12.60;;;8.40;;
5157;SDS011;2598;52.364;9.772;2023-10-19T13:41:20;16.17;;;9.33;;
5157;SDS011;2598;52.364;9.772;2023-10-19T13:43:46;15.17;;;9.90;;
5157;SDS011;2598;52.364;9.772;2023-10-19T13:46:12;18.27;;;10.73;;
5157;SDS011;2598;52.364;9.772;2023-10-19T13:48:38;17.80;;;10.33;;
5157;SDS011;2598;52.364;9.772;2023-10-19T13:51:04;16.60;;;10.23;;
5157;SDS011;2598;52.364;9.772;2023-10-19T13:53:37;16.17;;;10.30;;
5157;SDS011;2598;52.364;9.772;2023-10-19T13:56:06;16.80;;;10.73;;
5157;SDS011;2598;52.364;9.772;2023-10-19T13:58:33;17.07;;;10.00;;
5157;SDS011;2598;52.364;9.772;2023-10-19T14:01:00;17.13;;;9.57;;
5157;SDS011;2598;52.364;9.772;2023-10-19T14:03:26;20.10;;;11.30;;
5157;SDS011;2598;52.364;9.772;2023-10-19T14:05:52;17.03;;;10.10;;
5157;SDS011;2598;52.364;9.772;2023-10-19T14:08:21;17.93;;;11.30;;
5157;SDS011;2598;52.364;9.772;2023-10-19T14:10:47;15.97;;;9.80;;
5157;SDS011;2598;52.364;9.772;2023-10-19T14:13:14;20.10;;;11.33;;
5157;SDS011;2598;52.364;9.772;2023-10-19T14:15:40;16.33;;;9.10;;
5157;SDS011;2598;52.364;9.772;2023-10-19T14:18:07;19.50;;;11.50;;
5157;SDS011;2598;52.364;9.772;2023-10-19T14:20:33;19.23;;;11.27;;
5157;SDS011;2598;52.364;9.772;2023-10-19T14:23:00;19.37;;;11.60;;
5157;SDS011;2598;52.364;9.772;2023-10-19T14:25:26;20.43;;;11.77;;
5157;SDS011;2598;52.364;9.772;2023-10-19T14:27:54;20.30;;;13.00;;
5157;SDS011;2598;52.364;9.772;2023-10-19T14:30:24;21.30;;;12.80;;
5157;SDS011;2598;52.364;9.772;2023-10-19T14:32:50;20.50;;;11.60;;
5157;SDS011;2598;52.364;9.772;2023-10-19T14:35:17;22.03;;;12.47;;
5157;SDS011;2598;52.364;9.772;2023-10-19T14:37:45;26.87;;;14.67;;
5157;SDS011;2598;52.364;9.772;2023-10-19T14:40:12;26.07;;;14.23;;
5157;SDS011;2598;52.364;9.772;2023-10-19T14:42:39;22.73;;;12.07;;
5157;SDS011;2598;52.364;9.772;2023-10-19T14:45:07;22.37;;;12.07;;
5157;SDS011;2598;52.364;9.772;2023-10-19T14:47:35;22.73;;;12.73;;
5157;SDS011;2598;52.364;9.772;2023-10-19T14:50:01;22.77;;;13.80;;
5157;SDS011;2598;52.364;9.772;2023-10-19T14:52:27;23.90;;;14.60;;
5157;SDS011;2598;52.364;9.772;2023-10-19T14:54:53;22.70;;;13.87;;
5157;SDS011;2598;52.364;9.772;2023-10-19T14:57:20;30.93;;;15.10;;
5157;SDS011;2598;52.364;9.772;2023-10-19T14:59:46;24.50;;;13.80;;
5157;SDS011;2598;52.364;9.772;2023-10-19T15:02:13;20.87;;;12.67;;
5157;SDS011;2598;52.364;9.772;2023-10-19T15:04:39;22.50;;;13.23;;
5157;SDS011;2598;52.364;9.772;2023-10-19T15:07:05;24.23;;;13.77;;
5157;SDS011;2598;52.364;9.772;2023-10-19T15:09:31;25.53;;;14.40;;
5157;SDS011;2598;52.364;9.772;2023-10-19T15:11:58;22.57;;;13.53;;
5157;SDS011;2598;52.364;9.772;2023-10-19T15:14:24;21.50;;;13.73;;
5157;SDS011;2598;52.364;9.772;2023-10-19T15:16:50;27.60;;;15.30;;